sensor_id;sensor_type;location;lat;lon;timestamp;pressure;altitude;pressure_sealevel;temperature;humidity
22743;BME280;11538;48.884;8.696;2022-07-06T00:00:07;99345.06;;;19.09;59.02
22743;BME280;11538;48.884;8.696;2022-07-06T00:02:34;99354.25;;;19.00;59.35
22743;BME280;11538;48.884;8.696;2022-07-06T00:05:00;99345.63;;;18.90;59.47
22743;BME280;11538;48.884;8.696;2022-07-06T00:07:27;99351.69;;;18.83;59.63
22743;BME280;11538;48.884;8.696;2022-07-06T00:09:54;99352.25;;;18.76;60.10
22743;BME280;11538;48.884;8.696;2022-07-06T00:12:21;99345.16;;;18.75;59.85
22743;BME280;11538;48.884;8.696;2022-07-06T00:14:48;99347.22;;;18.78;59.87
22743;BME280;11538;48.884;8.696;2022-07-06T00:17:15;99352.03;;;18.81;59.56
22743;BME280;11538;48.884;8.696;2022-07-06T00:19:42;99352.34;;;18.80;60.13
22743;BME280;11538;48.884;8.696;2022-07-06T00:22:09;99352.94;;;18.73;60.07
22743;BME280;11538;48.884;8.696;2022-07-06T00:24:36;99347.69;;;18.80;59.82
22743;BME280;11538;48.884;8.696;2022-07-06T00:27:03;99345.84;;;18.84;59.68
22743;BME280;11538;48.884;8.696;2022-07-06T00:29:30;99352.72;;;18.78;59.67
22743;BME280;11538;48.884;8.696;2022-07-06T00:31:58;99358.63;;;18.55;60.29
22743;BME280;11538;48.884;8.696;2022-07-06T00:34:25;99366.13;;;18.46;60.89
22743;BME280;11538;48.884;8.696;2022-07-06T00:36:51;99360.34;;;18.26;61.23
22743;BME280;11538;48.884;8.696;2022-07-06T00:39:18;99366.38;;;18.20;61.52
22743;BME280;11538;48.884;8.696;2022-07-06T00:41:46;99366.56;;;18.36;60.96
22743;BME280;11538;48.884;8.696;2022-07-06T00:44:12;99371.72;;;18.37;60.47
22743;BME280;11538;48.884;8.696;2022-07-06T00:46:39;99366.91;;;18.34;60.71
22743;BME280;11538;48.884;8.696;2022-07-06T00:49:06;99368.19;;;18.49;60.40
22743;BME280;11538;48.884;8.696;2022-07-06T00:51:53;99373.31;;;18.72;59.62
22743;BME280;11538;48.884;8.696;2022-07-06T00:54:21;99370.22;;;18.86;59.00
22743;BME280;11538;48.884;8.696;2022-07-06T00:56:48;99370.56;;;18.72;61.30
22743;BME280;11538;48.884;8.696;2022-07-06T00:59:15;99375.72;;;18.40;62.10
22743;BME280;11538;48.884;8.696;2022-07-06T01:01:42;99374.94;;;18.18;62.74
22743;BME280;11538;48.884;8.696;2022-07-06T01:04:09;99374.31;;;18.00;63.49
22743;BME280;11538;48.884;8.696;2022-07-06T01:06:36;99370.25;;;17.97;64.39
22743;BME280;11538;48.884;8.696;2022-07-06T01:09:05;99367.94;;;18.08;64.01
22743;BME280;11538;48.884;8.696;2022-07-06T01:11:32;99375.41;;;18.20;63.73
22743;BME280;11538;48.884;8.696;2022-07-06T01:14:00;99372.94;;;18.27;63.29
22743;BME280;11538;48.884;8.696;2022-07-06T01:16:28;99370.44;;;18.35;62.80
22743;BME280;11538;48.884;8.696;2022-07-06T01:18:55;99369.03;;;18.29;62.71
22743;BME280;11538;48.884;8.696;2022-07-06T01:21:22;99359.03;;;18.11;63.14
22743;BME280;11538;48.884;8.696;2022-07-06T01:23:49;99364.19;;;18.13;63.04
22743;BME280;11538;48.884;8.696;2022-07-06T01:26:19;99351.22;;;18.01;63.17
22743;BME280;11538;48.884;8.696;2022-07-06T01:28:51;99352.84;;;17.93;63.73
22743;BME280;11538;48.884;8.696;2022-07-06T01:31:25;99351.59;;;17.91;64.02
22743;BME280;11538;48.884;8.696;2022-07-06T01:33:55;99348.75;;;17.78;64.06
22743;BME280;11538;48.884;8.696;2022-07-06T01:36:23;99353.56;;;17.81;64.13
22743;BME280;11538;48.884;8.696;2022-07-06T01:38:55;99350.50;;;17.83;64.34
22743;BME280;11538;48.884;8.696;2022-07-06T01:41:26;99341.66;;;17.77;64.17
22743;BME280;11538;48.884;8.696;2022-07-06T01:43:53;99353.38;;;17.87;64.08
22743;BME280;11538;48.884;8.696;2022-07-06T01:46:20;99357.00;;;18.00;63.71
22743;BME280;11538;48.884;8.696;2022-07-06T01:48:47;99351.31;;;18.05;63.53
22743;BME280;11538;48.884;8.696;2022-07-06T01:51:15;99351.69;;;18.03;63.61
22743;BME280;11538;48.884;8.696;2022-07-06T01:53:42;99352.53;;;17.95;63.89
22743;BME280;11538;48.884;8.696;2022-07-06T01:56:09;99350.97;;;17.85;64.23
22743;BME280;11538;48.884;8.696;2022-07-06T01:58:38;99351.75;;;17.86;64.81
22743;BME280;11538;48.884;8.696;2022-07-06T02:01:15;99354.38;;;17.82;64.97
22743;BME280;11538;48.884;8.696;2022-07-06T02:03:44;99359.47;;;17.92;64.74
22743;BME280;11538;48.884;8.696;2022-07-06T02:06:12;99357.34;;;17.77;65.23
22743;BME280;11538;48.884;8.696;2022-07-06T02:08:42;99369.84;;;17.65;65.22
22743;BME280;11538;48.884;8.696;2022-07-06T02:11:10;99374.59;;;17.56;65.44
22743;BME280;11538;48.884;8.696;2022-07-06T02:13:37;99368.06;;;17.61;65.50
22743;BME280;11538;48.884;8.696;2022-07-06T02:16:05;99368.75;;;17.58;65.75
22743;BME280;11538;48.884;8.696;2022-07-06T02:18:32;99369.19;;;17.38;66.61
22743;BME280;11538;48.884;8.696;2022-07-06T02:20:59;99367.06;;;17.44;66.74
22743;BME280;11538;48.884;8.696;2022-07-06T02:23:26;99367.72;;;17.41;67.24
22743;BME280;11538;48.884;8.696;2022-07-06T02:25:53;99362.09;;;17.37;67.46
22743;BME280;11538;48.884;8.696;2022-07-06T02:28:20;99368.66;;;17.45;66.88
22743;BME280;11538;48.884;8.696;2022-07-06T02:30:47;99355.75;;;17.46;67.17
22743;BME280;11538;48.884;8.696;2022-07-06T02:33:14;99367.13;;;17.35;67.21
22743;BME280;11538;48.884;8.696;2022-07-06T02:35:41;99369.13;;;17.47;66.81
22743;BME280;11538;48.884;8.696;2022-07-06T02:38:11;99361.94;;;17.64;65.84
22743;BME280;11538;48.884;8.696;2022-07-06T02:40:39;99366.91;;;17.71;65.59
22743;BME280;11538;48.884;8.696;2022-07-06T02:43:06;99366.22;;;17.74;64.91
22743;BME280;11538;48.884;8.696;2022-07-06T02:45:33;99364.28;;;17.74;64.97
22743;BME280;11538;48.884;8.696;2022-07-06T02:48:00;99361.47;;;17.83;64.55
22743;BME280;11538;48.884;8.696;2022-07-06T02:50:27;99358.00;;;17.95;64.19
22743;BME280;11538;48.884;8.696;2022-07-06T02:52:54;99369.41;;;18.06;63.47
22743;BME280;11538;48.884;8.696;2022-07-06T02:55:22;99365.78;;;18.14;63.46
22743;BME280;11538;48.884;8.696;2022-07-06T02:57:49;99372.56;;;18.17;63.24
22743;BME280;11538;48.884;8.696;2022-07-06T03:00:16;99373.81;;;18.19;63.12
22743;BME280;11538;48.884;8.696;2022-07-06T03:02:43;99369.00;;;18.16;62.81
22743;BME280;11538;48.884;8.696;2022-07-06T03:05:11;99378.63;;;18.22;62.90
22743;BME280;11538;48.884;8.696;2022-07-06T03:07:38;99379.31;;;18.19;63.42
22743;BME280;11538;48.884;8.696;2022-07-06T03:10:05;99385.34;;;18.12;63.68
22743;BME280;11538;48.884;8.696;2022-07-06T03:12:32;99387.06;;;18.17;63.18
22743;BME280;11538;48.884;8.696;2022-07-06T03:14:59;99386.88;;;18.22;63.00
22743;BME280;11538;48.884;8.696;2022-07-06T03:17:26;99392.81;;;18.24;62.83
22743;BME280;11538;48.884;8.696;2022-07-06T03:19:53;99395.34;;;18.30;62.42
22743;BME280;11538;48.884;8.696;2022-07-06T03:22:20;99395.34;;;18.30;62.72
22743;BME280;11538;48.884;8.696;2022-07-06T03:24:47;99396.59;;;18.20;62.54
22743;BME280;11538;48.884;8.696;2022-07-06T03:27:14;99393.38;;;18.18;62.60
22743;BME280;11538;48.884;8.696;2022-07-06T03:29:41;99403.69;;;18.21;62.71
22743;BME280;11538;48.884;8.696;2022-07-06T03:32:08;99400.28;;;18.24;62.66
22743;BME280;11538;48.884;8.696;2022-07-06T03:34:35;99405.97;;;18.19;62.87
22743;BME280;11538;48.884;8.696;2022-07-06T03:37:03;99403.63;;;18.08;63.28
22743;BME280;11538;48.884;8.696;2022-07-06T03:39:30;99403.75;;;18.12;63.48
22743;BME280;11538;48.884;8.696;2022-07-06T03:41:56;99397.66;;;18.06;63.93
22743;BME280;11538;48.884;8.696;2022-07-06T03:44:23;99402.69;;;18.04;63.61
22743;BME280;11538;48.884;8.696;2022-07-06T03:46:50;99397.91;;;17.92;64.23
22743;BME280;11538;48.884;8.696;2022-07-06T03:49:19;99406.53;;;17.82;64.83
22743;BME280;11538;48.884;8.696;2022-07-06T03:51:46;99401.69;;;17.79;64.76
22743;BME280;11538;48.884;8.696;2022-07-06T03:54:13;99399.16;;;17.74;64.95
22743;BME280;11538;48.884;8.696;2022-07-06T03:56:40;99398.88;;;17.88;64.65
22743;BME280;11538;48.884;8.696;2022-07-06T03:59:07;99401.09;;;17.94;64.05
22743;BME280;11538;48.884;8.696;2022-07-06T04:01:33;99399.81;;;18.01;63.96
22743;BME280;11538;48.884;8.696;2022-07-06T04:04:00;99400.50;;;17.89;64.56
22743;BME280;11538;48.884;8.696;2022-07-06T04:06:27;99412.00;;;17.82;65.03
22743;BME280;11538;48.884;8.696;2022-07-06T04:08:54;99410.53;;;17.84;64.82
22743;BME280;11538;48.884;8.696;2022-07-06T04:11:21;99405.84;;;17.85;65.01
22743;BME280;11538;48.884;8.696;2022-07-06T04:13:48;99404.25;;;17.84;65.27
22743;BME280;11538;48.884;8.696;2022-07-06T04:16:15;99414.56;;;17.87;65.39
22743;BME280;11538;48.884;8.696;2022-07-06T04:18:42;99410.88;;;17.83;65.08
22743;BME280;11538;48.884;8.696;2022-07-06T04:21:09;99407.00;;;17.84;65.66
22743;BME280;11538;48.884;8.696;2022-07-06T04:23:36;99407.97;;;17.79;66.03
22743;BME280;11538;48.884;8.696;2022-07-06T04:26:03;99423.31;;;17.80;65.85
22743;BME280;11538;48.884;8.696;2022-07-06T04:28:30;99420.38;;;17.86;65.23
22743;BME280;11538;48.884;8.696;2022-07-06T04:30:57;99422.13;;;17.90;66.04
22743;BME280;11538;48.884;8.696;2022-07-06T04:33:24;99422.28;;;17.94;65.74
22743;BME280;11538;48.884;8.696;2022-07-06T04:35:51;99424.81;;;17.99;65.01
22743;BME280;11538;48.884;8.696;2022-07-06T04:38:18;99427.19;;;18.09;64.12
22743;BME280;11538;48.884;8.696;2022-07-06T04:40:46;99426.25;;;18.05;64.12
22743;BME280;11538;48.884;8.696;2022-07-06T04:43:13;99428.84;;;18.02;64.26
22743;BME280;11538;48.884;8.696;2022-07-06T04:45:40;99433.00;;;18.08;64.12
22743;BME280;11538;48.884;8.696;2022-07-06T04:48:07;99434.50;;;18.05;64.19
22743;BME280;11538;48.884;8.696;2022-07-06T04:50:35;99436.88;;;18.07;64.54
22743;BME280;11538;48.884;8.696;2022-07-06T04:53:06;99435.75;;;18.08;64.10
22743;BME280;11538;48.884;8.696;2022-07-06T04:55:33;99440.56;;;18.11;64.04
22743;BME280;11538;48.884;8.696;2022-07-06T04:58:00;99441.88;;;18.14;63.93
22743;BME280;11538;48.884;8.696;2022-07-06T05:00:27;99435.22;;;18.15;63.70
22743;BME280;11538;48.884;8.696;2022-07-06T05:02:55;99437.44;;;18.21;63.89
22743;BME280;11538;48.884;8.696;2022-07-06T05:05:22;99447.16;;;18.19;63.95
22743;BME280;11538;48.884;8.696;2022-07-06T05:07:49;99446.81;;;18.20;63.61
22743;BME280;11538;48.884;8.696;2022-07-06T05:10:16;99437.22;;;18.26;63.57
22743;BME280;11538;48.884;8.696;2022-07-06T05:12:43;99437.44;;;18.21;63.54
22743;BME280;11538;48.884;8.696;2022-07-06T05:15:10;99449.34;;;18.25;63.53
22743;BME280;11538;48.884;8.696;2022-07-06T05:17:37;99451.88;;;18.31;63.43
22743;BME280;11538;48.884;8.696;2022-07-06T05:20:05;99449.75;;;18.36;62.83
22743;BME280;11538;48.884;8.696;2022-07-06T05:22:32;99448.16;;;18.35;62.79
22743;BME280;11538;48.884;8.696;2022-07-06T05:24:59;99455.47;;;18.31;63.02
22743;BME280;11538;48.884;8.696;2022-07-06T05:27:26;99454.09;;;18.37;62.50
22743;BME280;11538;48.884;8.696;2022-07-06T05:29:53;99451.69;;;18.36;62.26
22743;BME280;11538;48.884;8.696;2022-07-06T05:32:20;99448.28;;;18.39;62.15
22743;BME280;11538;48.884;8.696;2022-07-06T05:34:47;99456.44;;;18.48;61.87
22743;BME280;11538;48.884;8.696;2022-07-06T05:37:14;99455.63;;;18.47;61.56
22743;BME280;11538;48.884;8.696;2022-07-06T05:39:41;99458.06;;;18.49;61.70
22743;BME280;11538;48.884;8.696;2022-07-06T05:42:10;99447.75;;;18.46;61.62
22743;BME280;11538;48.884;8.696;2022-07-06T05:44:37;99458.25;;;18.44;61.70
22743;BME280;11538;48.884;8.696;2022-07-06T05:47:05;99451.41;;;18.50;61.46
22743;BME280;11538;48.884;8.696;2022-07-06T05:49:50;99457.78;;;18.63;61.01
22743;BME280;11538;48.884;8.696;2022-07-06T05:52:35;99457.09;;;18.66;60.64
22743;BME280;11538;48.884;8.696;2022-07-06T05:55:02;99463.81;;;18.56;60.23
22743;BME280;11538;48.884;8.696;2022-07-06T05:57:29;99459.78;;;18.53;60.36
22743;BME280;11538;48.884;8.696;2022-07-06T05:59:56;99460.53;;;18.63;59.94
22743;BME280;11538;48.884;8.696;2022-07-06T06:02:23;99463.19;;;18.71;59.41
22743;BME280;11538;48.884;8.696;2022-07-06T06:04:50;99464.09;;;18.76;59.56
22743;BME280;11538;48.884;8.696;2022-07-06T06:07:17;99460.44;;;18.71;59.01
22743;BME280;11538;48.884;8.696;2022-07-06T06:09:44;99455.50;;;18.65;59.07
22743;BME280;11538;48.884;8.696;2022-07-06T06:12:11;99458.81;;;18.70;59.05
22743;BME280;11538;48.884;8.696;2022-07-06T06:14:38;99461.72;;;18.74;58.91
22743;BME280;11538;48.884;8.696;2022-07-06T06:17:05;99462.84;;;18.73;59.07
22743;BME280;11538;48.884;8.696;2022-07-06T06:19:35;99455.41;;;18.74;58.94
22743;BME280;11538;48.884;8.696;2022-07-06T06:22:03;99461.97;;;18.81;59.20
22743;BME280;11538;48.884;8.696;2022-07-06T06:24:30;99461.16;;;18.81;58.95
22743;BME280;11538;48.884;8.696;2022-07-06T06:26:57;99471.81;;;18.82;59.47
22743;BME280;11538;48.884;8.696;2022-07-06T06:29:26;99462.78;;;18.94;58.95
22743;BME280;11538;48.884;8.696;2022-07-06T06:31:53;99474.53;;;19.04;58.26
22743;BME280;11538;48.884;8.696;2022-07-06T06:34:20;99467.19;;;19.08;58.10
22743;BME280;11538;48.884;8.696;2022-07-06T06:36:47;99476.97;;;19.18;58.02
22743;BME280;11538;48.884;8.696;2022-07-06T06:39:14;99476.22;;;19.29;57.81
22743;BME280;11538;48.884;8.696;2022-07-06T06:41:41;99487.44;;;19.37;57.74
22743;BME280;11538;48.884;8.696;2022-07-06T06:44:08;99487.31;;;19.33;57.67
22743;BME280;11538;48.884;8.696;2022-07-06T06:46:35;99470.59;;;19.38;57.75
22743;BME280;11538;48.884;8.696;2022-07-06T06:49:02;99475.06;;;19.31;57.60
22743;BME280;11538;48.884;8.696;2022-07-06T06:51:29;99470.13;;;19.36;57.55
22743;BME280;11538;48.884;8.696;2022-07-06T06:53:56;99473.47;;;19.42;58.03
22743;BME280;11538;48.884;8.696;2022-07-06T06:56:23;99470.59;;;19.51;57.45
22743;BME280;11538;48.884;8.696;2022-07-06T06:58:50;99469.69;;;19.59;57.31
22743;BME280;11538;48.884;8.696;2022-07-06T07:01:37;99463.38;;;19.71;57.20
22743;BME280;11538;48.884;8.696;2022-07-06T07:04:04;99462.56;;;19.70;56.83
22743;BME280;11538;48.884;8.696;2022-07-06T07:06:33;99460.03;;;19.65;57.30
22743;BME280;11538;48.884;8.696;2022-07-06T07:09:00;99468.19;;;19.62;57.76
22743;BME280;11538;48.884;8.696;2022-07-06T07:11:27;99473.81;;;19.65;57.29
22743;BME280;11538;48.884;8.696;2022-07-06T07:13:54;99471.03;;;19.78;57.17
22743;BME280;11538;48.884;8.696;2022-07-06T07:16:21;99466.34;;;19.78;56.87
22743;BME280;11538;48.884;8.696;2022-07-06T07:18:48;99468.34;;;19.90;56.72
22743;BME280;11538;48.884;8.696;2022-07-06T07:21:15;99460.84;;;20.03;56.23
22743;BME280;11538;48.884;8.696;2022-07-06T07:23:42;99458.97;;;20.20;56.12
22743;BME280;11538;48.884;8.696;2022-07-06T07:26:09;99463.69;;;20.19;55.47
22743;BME280;11538;48.884;8.696;2022-07-06T07:28:36;99463.09;;;20.26;55.72
22743;BME280;11538;48.884;8.696;2022-07-06T07:31:04;99460.00;;;20.27;55.67
22743;BME280;11538;48.884;8.696;2022-07-06T07:33:31;99463.28;;;20.33;55.45
22743;BME280;11538;48.884;8.696;2022-07-06T07:35:59;99452.34;;;20.49;55.12
22743;BME280;11538;48.884;8.696;2022-07-06T07:38:26;99450.44;;;20.66;54.63
22743;BME280;11538;48.884;8.696;2022-07-06T07:40:54;99452.81;;;20.80;54.46
22743;BME280;11538;48.884;8.696;2022-07-06T07:43:21;99455.59;;;20.96;53.91
22743;BME280;11538;48.884;8.696;2022-07-06T07:45:49;99452.06;;;21.11;53.35
22743;BME280;11538;48.884;8.696;2022-07-06T07:48:16;99455.53;;;21.24;52.54
22743;BME280;11538;48.884;8.696;2022-07-06T07:50:43;99456.81;;;21.27;53.06
22743;BME280;11538;48.884;8.696;2022-07-06T07:53:10;99460.69;;;21.42;53.00
22743;BME280;11538;48.884;8.696;2022-07-06T07:55:37;99459.38;;;21.52;52.40
22743;BME280;11538;48.884;8.696;2022-07-06T07:58:08;99467.09;;;21.62;51.99
22743;BME280;11538;48.884;8.696;2022-07-06T08:00:35;99463.00;;;21.72;51.52
22743;BME280;11538;48.884;8.696;2022-07-06T08:03:03;99460.25;;;21.88;51.45
22743;BME280;11538;48.884;8.696;2022-07-06T08:05:30;99462.88;;;22.00;51.22
22743;BME280;11538;48.884;8.696;2022-07-06T08:07:57;99456.78;;;22.11;51.35
22743;BME280;11538;48.884;8.696;2022-07-06T08:10:24;99457.50;;;22.08;50.95
22743;BME280;11538;48.884;8.696;2022-07-06T08:12:50;99453.88;;;22.23;50.66
22743;BME280;11538;48.884;8.696;2022-07-06T08:15:18;99455.50;;;22.24;50.12
22743;BME280;11538;48.884;8.696;2022-07-06T08:17:45;99458.69;;;22.26;50.09
22743;BME280;11538;48.884;8.696;2022-07-06T08:20:12;99459.88;;;22.45;50.09
22743;BME280;11538;48.884;8.696;2022-07-06T08:22:39;99452.03;;;22.67;49.48
22743;BME280;11538;48.884;8.696;2022-07-06T08:25:07;99455.81;;;22.78;48.71
22743;BME280;11538;48.884;8.696;2022-07-06T08:27:34;99456.59;;;22.78;48.54
22743;BME280;11538;48.884;8.696;2022-07-06T08:30:04;99453.63;;;22.87;48.52
22743;BME280;11538;48.884;8.696;2022-07-06T08:32:31;99458.53;;;22.98;48.27
22743;BME280;11538;48.884;8.696;2022-07-06T08:35:17;99460.16;;;23.22;47.74
22743;BME280;11538;48.884;8.696;2022-07-06T08:37:44;99459.19;;;23.34;47.25
22743;BME280;11538;48.884;8.696;2022-07-06T08:40:12;99460.31;;;23.29;47.12
22743;BME280;11538;48.884;8.696;2022-07-06T08:42:39;99453.72;;;23.18;47.42
22743;BME280;11538;48.884;8.696;2022-07-06T08:45:09;99460.25;;;23.26;47.60
22743;BME280;11538;48.884;8.696;2022-07-06T08:47:36;99454.31;;;23.50;47.36
22743;BME280;11538;48.884;8.696;2022-07-06T08:50:07;99462.41;;;23.63;47.36
22743;BME280;11538;48.884;8.696;2022-07-06T08:52:35;99455.47;;;23.49;47.24
22743;BME280;11538;48.884;8.696;2022-07-06T08:55:03;99466.75;;;23.60;47.26
22743;BME280;11538;48.884;8.696;2022-07-06T08:57:30;99463.22;;;23.90;47.10
22743;BME280;11538;48.884;8.696;2022-07-06T08:59:58;99465.53;;;24.12;46.20
22743;BME280;11538;48.884;8.696;2022-07-06T09:02:26;99465.25;;;24.20;45.39
22743;BME280;11538;48.884;8.696;2022-07-06T09:04:55;99463.38;;;24.28;44.72
22743;BME280;11538;48.884;8.696;2022-07-06T09:07:27;99469.25;;;24.53;44.51
22743;BME280;11538;48.884;8.696;2022-07-06T09:10:18;99474.63;;;24.73;44.17
22743;BME280;11538;48.884;8.696;2022-07-06T09:12:46;99481.03;;;24.77;43.98
22743;BME280;11538;48.884;8.696;2022-07-06T09:15:15;99472.72;;;24.81;44.06
22743;BME280;11538;48.884;8.696;2022-07-06T09:17:43;99471.53;;;24.78;43.78
22743;BME280;11538;48.884;8.696;2022-07-06T09:20:13;99477.72;;;24.68;44.04
22743;BME280;11538;48.884;8.696;2022-07-06T09:22:41;99483.81;;;24.81;44.17
22743;BME280;11538;48.884;8.696;2022-07-06T09:25:14;99471.94;;;24.80;43.91
22743;BME280;11538;48.884;8.696;2022-07-06T09:27:45;99481.59;;;24.94;43.77
22743;BME280;11538;48.884;8.696;2022-07-06T09:30:16;99471.84;;;25.11;44.10
22743;BME280;11538;48.884;8.696;2022-07-06T09:32:46;99475.78;;;25.10;43.19
22743;BME280;11538;48.884;8.696;2022-07-06T09:38:08;99476.28;;;25.19;42.62
22743;BME280;11538;48.884;8.696;2022-07-06T09:40:38;99476.03;;;25.35;42.69
22743;BME280;11538;48.884;8.696;2022-07-06T09:43:20;99482.97;;;25.56;41.97
22743;BME280;11538;48.884;8.696;2022-07-06T09:45:54;99481.41;;;25.62;42.05
22743;BME280;11538;48.884;8.696;2022-07-06T09:48:25;99488.19;;;25.65;41.57
22743;BME280;11538;48.884;8.696;2022-07-06T09:51:02;99490.63;;;25.70;42.05
22743;BME280;11538;48.884;8.696;2022-07-06T09:53:29;99489.50;;;25.78;41.79
22743;BME280;11538;48.884;8.696;2022-07-06T09:55:57;99484.34;;;25.84;41.60
22743;BME280;11538;48.884;8.696;2022-07-06T09:58:25;99490.00;;;25.95;41.28
22743;BME280;11538;48.884;8.696;2022-07-06T10:01:11;99495.34;;;26.18;41.19
22743;BME280;11538;48.884;8.696;2022-07-06T10:03:40;99497.22;;;26.10;41.03
22743;BME280;11538;48.884;8.696;2022-07-06T10:06:08;99496.84;;;26.12;40.82
22743;BME280;11538;48.884;8.696;2022-07-06T10:08:37;99496.41;;;26.06;40.44
22743;BME280;11538;48.884;8.696;2022-07-06T10:11:05;99489.94;;;25.88;41.03
22743;BME280;11538;48.884;8.696;2022-07-06T10:13:36;99489.84;;;25.73;42.17
22743;BME280;11538;48.884;8.696;2022-07-06T10:16:04;99496.38;;;25.99;40.99
22743;BME280;11538;48.884;8.696;2022-07-06T10:18:31;99497.19;;;26.03;40.99
22743;BME280;11538;48.884;8.696;2022-07-06T10:20:59;99492.41;;;25.96;41.62
22743;BME280;11538;48.884;8.696;2022-07-06T10:23:26;99496.84;;;26.12;41.56
22743;BME280;11538;48.884;8.696;2022-07-06T10:25:57;99499.56;;;26.01;40.80
22743;BME280;11538;48.884;8.696;2022-07-06T10:28:26;99499.88;;;25.89;42.18
22743;BME280;11538;48.884;8.696;2022-07-06T10:30:54;99491.09;;;25.79;40.92
22743;BME280;11538;48.884;8.696;2022-07-06T10:33:22;99491.53;;;25.85;41.95
22743;BME280;11538;48.884;8.696;2022-07-06T10:35:55;99493.38;;;26.26;41.14
22743;BME280;11538;48.884;8.696;2022-07-06T10:38:32;99494.69;;;26.50;39.54
22743;BME280;11538;48.884;8.696;2022-07-06T10:41:09;99489.31;;;26.12;39.87
22743;BME280;11538;48.884;8.696;2022-07-06T10:43:44;99492.44;;;25.48;41.04
22743;BME280;11538;48.884;8.696;2022-07-06T10:46:15;99482.31;;;25.29;41.52
22743;BME280;11538;48.884;8.696;2022-07-06T10:48:47;99486.16;;;25.58;40.97
22743;BME280;11538;48.884;8.696;2022-07-06T10:51:33;99493.00;;;26.27;39.60
22743;BME280;11538;48.884;8.696;2022-07-06T10:54:04;99490.66;;;26.40;39.27
22743;BME280;11538;48.884;8.696;2022-07-06T10:56:36;99483.88;;;26.31;38.83
22743;BME280;11538;48.884;8.696;2022-07-06T11:02:17;99491.38;;;26.23;40.06
22743;BME280;11538;48.884;8.696;2022-07-06T11:04:49;99490.75;;;26.59;38.59
22743;BME280;11538;48.884;8.696;2022-07-06T11:07:19;99487.19;;;26.69;38.24
22743;BME280;11538;48.884;8.696;2022-07-06T11:09:59;99485.50;;;26.39;38.61
22743;BME280;11538;48.884;8.696;2022-07-06T11:12:26;99491.78;;;26.25;38.52
22743;BME280;11538;48.884;8.696;2022-07-06T11:14:53;99487.97;;;26.62;38.02
22743;BME280;11538;48.884;8.696;2022-07-06T11:17:21;99481.63;;;26.69;37.47
22743;BME280;11538;48.884;8.696;2022-07-06T11:19:58;99478.16;;;27.05;37.41
22743;BME280;11538;48.884;8.696;2022-07-06T11:22:29;99478.22;;;27.59;36.32
22743;BME280;11538;48.884;8.696;2022-07-06T11:24:56;99475.03;;;27.71;35.85
22743;BME280;11538;48.884;8.696;2022-07-06T11:27:24;99480.53;;;28.08;35.35
22743;BME280;11538;48.884;8.696;2022-07-06T11:29:51;99481.31;;;28.30;34.96
22743;BME280;11538;48.884;8.696;2022-07-06T11:32:25;99478.34;;;28.66;34.53
22743;BME280;11538;48.884;8.696;2022-07-06T11:34:53;99468.16;;;29.09;33.65
22743;BME280;11538;48.884;8.696;2022-07-06T11:37:23;99465.16;;;29.38;33.11
22743;BME280;11538;48.884;8.696;2022-07-06T11:39:50;99454.81;;;29.76;32.69
22743;BME280;11538;48.884;8.696;2022-07-06T11:42:18;99455.44;;;29.95;31.66
22743;BME280;11538;48.884;8.696;2022-07-06T11:44:46;99458.19;;;29.99;32.01
22743;BME280;11538;48.884;8.696;2022-07-06T11:47:14;99464.22;;;30.32;31.32
22743;BME280;11538;48.884;8.696;2022-07-06T11:49:50;99462.78;;;30.82;33.85
22743;BME280;11538;48.884;8.696;2022-07-06T11:52:20;99458.13;;;30.06;31.69
22743;BME280;11538;48.884;8.696;2022-07-06T11:54:46;99459.56;;;30.22;31.70
22743;BME280;11538;48.884;8.696;2022-07-06T11:57:14;99457.31;;;31.02;30.89
22743;BME280;11538;48.884;8.696;2022-07-06T11:59:42;99452.94;;;31.29;31.06
22743;BME280;11538;48.884;8.696;2022-07-06T12:02:15;99449.84;;;30.64;30.81
22743;BME280;11538;48.884;8.696;2022-07-06T12:04:45;99447.47;;;30.63;30.82
22743;BME280;11538;48.884;8.696;2022-07-06T12:07:17;99445.47;;;30.63;30.48
22743;BME280;11538;48.884;8.696;2022-07-06T12:09:46;99449.50;;;29.51;31.80
22743;BME280;11538;48.884;8.696;2022-07-06T12:12:14;99443.75;;;29.16;32.00
22743;BME280;11538;48.884;8.696;2022-07-06T12:14:43;99447.22;;;29.39;32.23
22743;BME280;11538;48.884;8.696;2022-07-06T12:17:13;99441.19;;;29.82;31.81
22743;BME280;11538;48.884;8.696;2022-07-06T12:19:42;99447.00;;;29.11;32.29
22743;BME280;11538;48.884;8.696;2022-07-06T12:22:11;99436.38;;;28.92;32.63
22743;BME280;11538;48.884;8.696;2022-07-06T12:24:44;99441.53;;;29.88;31.14
22743;BME280;11538;48.884;8.696;2022-07-06T12:27:17;99419.81;;;29.65;32.33
22743;BME280;11538;48.884;8.696;2022-07-06T12:29:46;99432.28;;;29.53;31.96
22743;BME280;11538;48.884;8.696;2022-07-06T12:32:19;99428.41;;;29.43;32.43
22743;BME280;11538;48.884;8.696;2022-07-06T12:35:07;99431.41;;;29.14;32.20
22743;BME280;11538;48.884;8.696;2022-07-06T12:37:36;99430.72;;;28.10;33.28
22743;BME280;11538;48.884;8.696;2022-07-06T12:40:13;99432.06;;;27.51;34.52
22743;BME280;11538;48.884;8.696;2022-07-06T12:42:47;99429.44;;;29.11;32.29
22743;BME280;11538;48.884;8.696;2022-07-06T12:45:15;99426.06;;;30.14;30.82
22743;BME280;11538;48.884;8.696;2022-07-06T12:47:58;99424.03;;;30.49;30.21
22743;BME280;11538;48.884;8.696;2022-07-06T12:50:37;99410.84;;;30.19;30.74
22743;BME280;11538;48.884;8.696;2022-07-06T12:53:23;99421.03;;;29.60;31.59
22743;BME280;11538;48.884;8.696;2022-07-06T12:56:11;99428.31;;;30.27;30.88
22743;BME280;11538;48.884;8.696;2022-07-06T12:58:39;99419.13;;;30.57;29.90
22743;BME280;11538;48.884;8.696;2022-07-06T13:01:06;99414.50;;;30.43;30.00
22743;BME280;11538;48.884;8.696;2022-07-06T13:03:40;99418.69;;;29.55;31.08
22743;BME280;11538;48.884;8.696;2022-07-06T13:06:08;99415.13;;;30.27;30.38
22743;BME280;11538;48.884;8.696;2022-07-06T13:08:35;99415.34;;;29.71;30.99
22743;BME280;11538;48.884;8.696;2022-07-06T13:11:02;99417.41;;;29.21;31.96
22743;BME280;11538;48.884;8.696;2022-07-06T13:13:30;99413.34;;;30.10;30.56